createdAt,value
2023-05-22T00:01:10.511Z,99.90
2023-05-22T00:03:37.502Z,99.90
2023-05-22T00:06:06.228Z,99.90
2023-05-22T00:08:33.144Z,99.90
2023-05-22T00:11:00.098Z,99.90
2023-05-22T00:13:27.126Z,99.90
2023-05-22T00:15:54.102Z,99.90
2023-05-22T00:18:21.074Z,99.90
2023-05-22T00:20:48.384Z,99.90
2023-05-22T00:23:15.683Z,99.90
2023-05-22T00:25:42.832Z,99.90
2023-05-22T00:28:09.864Z,99.90
2023-05-22T00:30:37.249Z,99.90
2023-05-22T00:33:04.478Z,99.90
2023-05-22T00:35:31.484Z,99.90
2023-05-22T00:37:58.657Z,99.90
2023-05-22T00:40:26.438Z,99.90
2023-05-22T00:42:53.821Z,99.90
2023-05-22T00:45:22.280Z,99.90
2023-05-22T00:47:49.279Z,99.90
2023-05-22T00:50:17.079Z,99.90
2023-05-22T00:52:45.635Z,99.90
2023-05-22T00:55:13.725Z,99.90
2023-05-22T00:57:42.078Z,99.90
2023-05-22T01:00:13.326Z,99.90
2023-05-22T01:02:43.042Z,99.90
2023-05-22T01:05:13.205Z,99.90
2023-05-22T01:07:40.645Z,99.90
2023-05-22T01:10:08.271Z,99.90
2023-05-22T01:12:38.154Z,99.90
2023-05-22T01:15:47.396Z,99.90
2023-05-22T01:18:19.767Z,99.90
2023-05-22T01:20:55.212Z,99.90
2023-05-22T01:23:40.401Z,99.90
2023-05-22T01:26:22.218Z,99.90
2023-05-22T01:29:10.320Z,99.90
2023-05-22T01:31:39.504Z,99.90
2023-05-22T01:34:07.290Z,99.90
2023-05-22T01:36:37.514Z,99.90
2023-05-22T01:39:06.506Z,99.90
2023-05-22T01:41:34.143Z,99.90
2023-05-22T01:44:01.420Z,99.90
2023-05-22T01:46:29.406Z,99.90
2023-05-22T01:48:56.890Z,99.90
2023-05-22T01:51:33.563Z,99.90
2023-05-22T01:54:20.162Z,99.90
2023-05-22T01:57:41.363Z,99.90
2023-05-22T02:00:09.950Z,99.90
2023-05-22T02:02:49.156Z,99.90
2023-05-22T02:05:20.364Z,99.90
2023-05-22T02:07:47.369Z,99.90
2023-05-22T02:10:14.347Z,99.90
2023-05-22T02:12:41.316Z,99.90
2023-05-22T02:15:08.905Z,99.90
2023-05-22T02:17:42.646Z,99.90
2023-05-22T02:20:15.308Z,99.90
2023-05-22T02:22:46.527Z,99.90
2023-05-22T02:25:17.233Z,99.90
2023-05-22T02:27:46.573Z,99.90
2023-05-22T02:30:14.167Z,99.90
2023-05-22T02:32:42.371Z,99.90
2023-05-22T02:35:09.639Z,99.90
2023-05-22T02:37:36.703Z,99.90
2023-05-22T02:40:06.363Z,99.90
2023-05-22T02:42:33.624Z,99.90
2023-05-22T02:45:01.531Z,99.90
2023-05-22T02:47:28.546Z,99.90
2023-05-22T02:49:57.996Z,99.90
2023-05-22T02:52:25.154Z,99.90
2023-05-22T02:54:52.087Z,99.90
2023-05-22T02:57:20.495Z,99.90
2023-05-22T02:59:47.486Z,99.90
2023-05-22T03:02:15.479Z,99.90
2023-05-22T03:04:42.414Z,99.90
2023-05-22T03:07:09.452Z,99.90
2023-05-22T03:09:36.592Z,99.90
2023-05-22T03:12:04.978Z,99.90
2023-05-22T03:14:31.959Z,99.90
2023-05-22T03:16:59.055Z,99.90
2023-05-22T03:19:26.528Z,99.90
2023-05-22T03:21:53.612Z,99.90
2023-05-22T03:24:22.016Z,99.90
2023-05-22T03:26:48.921Z,99.90
2023-05-22T03:29:21.874Z,99.90
2023-05-22T03:31:49.033Z,99.90
2023-05-22T03:34:16.868Z,99.90
2023-05-22T03:36:46.502Z,99.90
2023-05-22T03:39:16.124Z,99.90
2023-05-22T03:41:51.860Z,99.90
2023-05-22T03:44:19.621Z,99.90
2023-05-22T03:46:46.828Z,99.90
2023-05-22T03:49:15.153Z,99.90
2023-05-22T03:51:42.045Z,99.90
2023-05-22T03:54:08.988Z,99.90
2023-05-22T03:56:35.884Z,99.90
2023-05-22T03:59:02.857Z,99.90
2023-05-22T04:01:29.952Z,99.90
2023-05-22T04:03:56.896Z,99.90
2023-05-22T04:06:23.850Z,99.90
2023-05-22T04:08:50.881Z,99.90
2023-05-22T04:11:18.585Z,99.90
2023-05-22T04:13:46.023Z,99.90
2023-05-22T04:16:13.099Z,99.90
2023-05-22T04:18:40.177Z,99.90
2023-05-22T04:21:09.905Z,99.90
2023-05-22T04:23:38.634Z,99.90
2023-05-22T04:26:08.858Z,99.90
2023-05-22T04:28:35.900Z,99.90
2023-05-22T04:31:06.485Z,99.90
2023-05-22T04:33:34.596Z,99.90
2023-05-22T04:36:02.559Z,99.90
2023-05-22T04:38:29.592Z,99.90
2023-05-22T04:40:57.099Z,99.90
2023-05-22T04:43:26.790Z,99.90
2023-05-22T04:45:54.962Z,99.90
2023-05-22T04:48:22.539Z,99.90
2023-05-22T04:50:54.363Z,99.90
2023-05-22T04:53:22.174Z,99.90
2023-05-22T04:55:49.774Z,99.90
2023-05-22T04:58:17.517Z,99.90
2023-05-22T05:00:45.779Z,99.90
2023-05-22T05:03:12.937Z,99.90
2023-05-22T05:05:41.877Z,99.90
2023-05-22T05:08:08.992Z,99.90
2023-05-22T05:10:35.967Z,99.90
2023-05-22T05:13:03.016Z,99.90
2023-05-22T05:15:32.393Z,99.90
2023-05-22T05:18:02.598Z,99.90
2023-05-22T05:20:32.197Z,99.90
2023-05-22T05:23:02.979Z,99.90
2023-05-22T05:25:30.114Z,99.90
2023-05-22T05:27:57.777Z,99.90
2023-05-22T05:30:24.842Z,99.90
2023-05-22T05:33:10.475Z,99.90
2023-05-22T05:35:43.717Z,99.90
2023-05-22T05:38:12.823Z,99.90
2023-05-22T05:40:43.964Z,99.90
2023-05-22T05:43:15.198Z,99.90
2023-05-22T05:45:43.753Z,99.90
2023-05-22T05:48:12.180Z,99.90
2023-05-22T05:50:45.997Z,99.90
2023-05-22T05:53:12.892Z,99.90
2023-05-22T05:55:44.549Z,99.90
2023-05-22T05:58:11.707Z,99.90
2023-05-22T06:00:45.045Z,99.90
2023-05-22T06:03:12.144Z,99.90
2023-05-22T06:05:54.564Z,99.90
2023-05-22T06:08:42.450Z,99.90
2023-05-22T06:11:09.594Z,99.90
2023-05-22T06:13:39.504Z,99.90
2023-05-22T06:16:07.811Z,99.90
2023-05-22T06:18:35.284Z,99.90
2023-05-22T06:21:02.341Z,99.90
2023-05-22T06:23:29.660Z,99.90
2023-05-22T06:25:57.428Z,99.90
2023-05-22T06:28:25.766Z,99.90
2023-05-22T06:30:52.955Z,99.90
2023-05-22T06:33:22.565Z,99.90
2023-05-22T06:35:50.410Z,99.90
2023-05-22T06:38:18.965Z,99.90
2023-05-22T06:40:46.144Z,99.90
2023-05-22T06:43:17.016Z,99.90
2023-05-22T06:45:49.550Z,99.90
2023-05-22T06:48:45.914Z,99.90
2023-05-22T06:51:24.546Z,99.90
2023-05-22T06:53:55.357Z,99.90
2023-05-22T06:56:27.228Z,99.90
2023-05-22T06:58:59.182Z,99.90
2023-05-22T07:01:44.802Z,99.90
2023-05-22T07:04:15.376Z,99.90
2023-05-22T07:06:52.704Z,99.90
2023-05-22T07:09:20.048Z,99.90
2023-05-22T07:11:49.077Z,99.90
2023-05-22T07:14:18.110Z,99.90
2023-05-22T07:16:46.128Z,99.90
2023-05-22T07:19:16.910Z,99.90
2023-05-22T07:21:43.917Z,99.90
2023-05-22T07:24:12.878Z,99.90
2023-05-22T07:26:46.194Z,99.90
2023-05-22T07:29:14.170Z,99.90
2023-05-22T07:31:42.439Z,99.90
2023-05-22T07:34:10.572Z,98.10
2023-05-22T07:36:38.033Z,95.60
2023-05-22T07:39:05.673Z,94.50
2023-05-22T07:41:36.835Z,93.00
2023-05-22T07:44:04.950Z,92.60
2023-05-22T07:46:37.721Z,91.40
2023-05-22T07:49:11.767Z,90.00
2023-05-22T07:51:41.704Z,88.00
2023-05-22T07:54:10.262Z,86.80
2023-05-22T07:56:44.076Z,86.60
2023-05-22T07:59:12.136Z,84.70
2023-05-22T08:01:39.996Z,81.90
2023-05-22T08:04:07.065Z,79.90
2023-05-22T08:06:36.935Z,80.50
2023-05-22T08:09:06.747Z,80.90
2023-05-22T08:11:35.057Z,80.60
2023-05-22T08:14:02.061Z,80.90
2023-05-22T08:16:30.051Z,80.50
2023-05-22T08:18:57.113Z,80.90
2023-05-22T08:21:24.104Z,80.70
2023-05-22T08:23:51.061Z,79.90
2023-05-22T08:26:18.061Z,79.50
2023-05-22T08:28:45.015Z,77.40
2023-05-22T08:31:12.566Z,75.50
2023-05-22T08:33:39.829Z,75.40
2023-05-22T08:36:06.866Z,73.70
2023-05-22T08:38:33.945Z,73.60
2023-05-22T08:41:00.912Z,71.90
2023-05-22T08:43:28.594Z,71.50
2023-05-22T08:46:05.963Z,70.00
2023-05-22T08:48:33.222Z,70.10
2023-05-22T08:51:03.842Z,69.40
2023-05-22T08:53:36.723Z,69.20
2023-05-22T08:56:05.117Z,69.70
2023-05-22T08:58:33.649Z,69.20
2023-05-22T09:01:00.695Z,69.30
2023-05-22T09:03:33.018Z,67.50
2023-05-22T09:06:01.293Z,66.90
2023-05-22T09:08:31.327Z,67.50
2023-05-22T09:10:58.422Z,67.90
2023-05-22T09:13:29.711Z,67.70
2023-05-22T09:16:15.144Z,67.90
2023-05-22T09:18:42.648Z,65.40
2023-05-22T09:21:28.721Z,64.70
2023-05-22T09:24:01.223Z,64.50
2023-05-22T09:26:29.424Z,62.40
2023-05-22T09:28:57.311Z,62.70
2023-05-22T09:31:24.327Z,62.70
2023-05-22T09:33:51.363Z,62.00
2023-05-22T09:36:18.262Z,61.40
2023-05-22T09:38:45.193Z,60.90
2023-05-22T09:41:12.032Z,61.60
2023-05-22T09:43:39.004Z,59.80
2023-05-22T09:46:05.961Z,59.20
2023-05-22T09:48:37.576Z,58.50
2023-05-22T09:51:05.520Z,57.20
2023-05-22T09:53:33.240Z,58.10
2023-05-22T09:56:00.433Z,58.50
2023-05-22T09:58:30.837Z,58.50
2023-05-22T10:00:58.374Z,58.80
2023-05-22T10:03:26.601Z,58.70
2023-05-22T10:05:57.008Z,58.80
2023-05-22T10:08:30.628Z,58.80
2023-05-22T10:10:58.704Z,57.70
2023-05-22T10:13:26.290Z,56.60
2023-05-22T10:15:53.327Z,55.90
2023-05-22T10:18:20.309Z,56.40
2023-05-22T10:20:47.378Z,55.50
2023-05-22T10:23:17.352Z,55.10
2023-05-22T10:25:45.456Z,56.30
2023-05-22T10:28:13.689Z,55.90
2023-05-22T10:30:49.690Z,56.20
2023-05-22T10:33:47.418Z,55.20
2023-05-22T10:36:20.332Z,55.50
2023-05-22T10:38:56.784Z,56.00
2023-05-22T10:41:24.020Z,55.40
2023-05-22T10:43:51.250Z,54.80
2023-05-22T10:46:18.398Z,54.40
2023-05-22T10:48:46.605Z,54.20
2023-05-22T10:51:14.636Z,53.80
2023-05-22T10:53:43.059Z,53.40
2023-05-22T10:56:16.461Z,52.90
2023-05-22T10:58:47.063Z,52.20
2023-05-22T11:01:17.050Z,52.70
2023-05-22T11:03:54.476Z,52.40
2023-05-22T11:06:36.507Z,52.20
2023-05-22T11:09:30.961Z,51.20
2023-05-22T11:12:17.954Z,51.50
2023-05-22T11:15:02.788Z,52.00
2023-05-22T11:17:33.859Z,51.80
2023-05-22T11:20:01.810Z,52.00
2023-05-22T11:22:33.334Z,52.00
2023-05-22T11:25:00.344Z,51.80
2023-05-22T11:27:27.437Z,51.40
2023-05-22T11:29:54.958Z,50.80
2023-05-22T11:32:23.649Z,50.70
2023-05-22T11:34:50.746Z,50.90
2023-05-22T11:37:19.078Z,51.40
2023-05-22T11:39:56.258Z,51.80
2023-05-22T11:42:23.128Z,51.30
2023-05-22T11:44:50.108Z,51.30
2023-05-22T11:47:17.074Z,51.80
2023-05-22T11:49:44.178Z,50.40
2023-05-22T11:52:11.173Z,50.40
2023-05-22T11:54:38.957Z,51.10
2023-05-22T11:57:08.151Z,51.40
2023-05-22T11:59:35.612Z,51.60
2023-05-22T12:02:02.568Z,51.40
2023-05-22T12:04:29.741Z,51.50
2023-05-22T12:06:56.886Z,52.10
2023-05-22T12:09:24.076Z,51.20
2023-05-22T12:11:51.078Z,51.60
2023-05-22T12:14:18.302Z,52.00
2023-05-22T12:16:45.416Z,52.00
2023-05-22T12:19:15.066Z,51.70
2023-05-22T12:21:42.293Z,52.10
2023-05-22T12:24:10.910Z,52.30
2023-05-22T12:26:38.082Z,51.50
2023-05-22T12:29:07.406Z,50.50
2023-05-22T12:31:36.332Z,51.00
2023-05-22T12:34:05.786Z,50.90
2023-05-22T12:36:39.732Z,51.00
2023-05-22T12:39:11.129Z,50.90
2023-05-22T12:41:38.641Z,49.70
2023-05-22T12:44:06.177Z,50.00
2023-05-22T12:46:33.713Z,50.30
2023-05-22T12:49:01.067Z,49.00
2023-05-22T12:51:29.844Z,48.60
2023-05-22T12:53:57.455Z,47.70
2023-05-22T12:56:24.421Z,47.40
2023-05-22T12:58:51.543Z,47.20
2023-05-22T13:01:18.517Z,47.40
2023-05-22T13:03:46.290Z,46.20
2023-05-22T13:06:13.409Z,46.60
2023-05-22T13:08:40.327Z,46.80
2023-05-22T13:11:07.248Z,44.80
2023-05-22T13:13:34.230Z,44.70
2023-05-22T13:16:01.248Z,43.90
2023-05-22T13:18:28.168Z,43.60
2023-05-22T13:20:57.545Z,43.30
2023-05-22T13:23:24.507Z,43.90
2023-05-22T13:25:51.463Z,44.60
2023-05-22T13:28:18.395Z,44.10
2023-05-22T13:30:45.499Z,43.50
2023-05-22T13:33:13.572Z,43.50
2023-05-22T13:35:40.673Z,42.90
2023-05-22T13:38:07.874Z,42.70
2023-05-22T13:40:34.868Z,43.40
2023-05-22T13:43:01.831Z,43.70
2023-05-22T13:45:28.686Z,44.00
2023-05-22T13:47:55.958Z,44.50
2023-05-22T13:50:22.993Z,44.60
2023-05-22T13:52:49.966Z,45.30
2023-05-22T13:55:16.997Z,46.00
2023-05-22T13:57:43.909Z,46.50
2023-05-22T14:00:11.334Z,46.90
2023-05-22T14:02:38.613Z,46.90
2023-05-22T14:05:06.043Z,47.40
2023-05-22T14:07:32.938Z,48.20
2023-05-22T14:10:01.141Z,49.00
2023-05-22T14:12:28.658Z,48.80
2023-05-22T14:14:55.676Z,48.60
2023-05-22T14:17:22.596Z,48.00
2023-05-22T14:19:49.549Z,48.30
2023-05-22T14:22:16.437Z,48.60
2023-05-22T14:24:43.397Z,49.60
2023-05-22T14:27:10.316Z,50.30
2023-05-22T14:29:39.742Z,51.20
2023-05-22T14:32:07.133Z,51.40
2023-05-22T14:34:34.099Z,52.10
2023-05-22T14:37:01.080Z,51.60
2023-05-22T14:39:28.075Z,50.10
2023-05-22T14:41:55.009Z,48.30
2023-05-22T14:44:25.022Z,47.70
2023-05-22T14:46:53.534Z,48.10
2023-05-22T14:49:20.545Z,46.20
2023-05-22T14:51:48.362Z,45.30
2023-05-22T14:54:18.010Z,44.90
2023-05-22T14:56:45.481Z,44.90
2023-05-22T14:59:12.411Z,45.60
2023-05-22T15:01:39.530Z,45.80
2023-05-22T15:04:07.998Z,46.40
2023-05-22T15:06:35.641Z,47.70
2023-05-22T15:09:02.524Z,47.30
2023-05-22T15:11:29.422Z,47.40
2023-05-22T15:13:56.425Z,47.30
2023-05-22T15:16:23.512Z,47.30
2023-05-22T15:18:50.697Z,47.70
2023-05-22T15:21:17.824Z,48.40
2023-05-22T15:23:44.756Z,48.20
2023-05-22T15:26:11.709Z,48.20
2023-05-22T15:28:38.702Z,47.40
2023-05-22T15:31:05.715Z,46.80
2023-05-22T15:33:34.075Z,47.10
2023-05-22T15:36:01.030Z,47.30
2023-05-22T15:38:28.781Z,47.10
2023-05-22T15:40:55.800Z,47.70
2023-05-22T15:43:24.337Z,48.00
2023-05-22T15:45:53.604Z,46.90
2023-05-22T15:48:20.903Z,46.80
2023-05-22T15:50:47.774Z,47.20
2023-05-22T15:53:14.663Z,47.40
2023-05-22T15:55:41.753Z,46.90
2023-05-22T15:58:08.825Z,47.90
2023-05-22T16:00:40.992Z,48.80
2023-05-22T16:03:11.387Z,48.70
2023-05-22T16:05:41.775Z,47.20
2023-05-22T16:08:11.519Z,47.50
2023-05-22T16:10:41.530Z,47.00
2023-05-22T16:13:10.663Z,46.50
2023-05-22T16:15:39.847Z,45.20
2023-05-22T16:18:07.385Z,44.90
2023-05-22T16:20:34.885Z,44.60
2023-05-22T16:23:01.834Z,44.50
2023-05-22T16:25:28.765Z,43.00
2023-05-22T16:27:55.739Z,43.20
2023-05-22T16:30:22.651Z,43.90
2023-05-22T16:32:49.616Z,44.70
2023-05-22T16:35:16.940Z,45.90
2023-05-22T16:37:43.858Z,45.00
2023-05-22T16:40:11.062Z,45.30
2023-05-22T16:42:39.206Z,46.50
2023-05-22T16:45:06.708Z,45.80
2023-05-22T16:47:33.580Z,45.40
2023-05-22T16:50:00.567Z,45.60
2023-05-22T16:52:27.611Z,45.80
2023-05-22T16:54:54.602Z,46.70
2023-05-22T16:57:22.671Z,46.70
2023-05-22T16:59:50.063Z,46.80
2023-05-22T17:02:17.033Z,46.20
2023-05-22T17:04:43.995Z,46.70
2023-05-22T17:07:10.953Z,47.30
2023-05-22T17:09:38.186Z,48.20
2023-05-22T17:12:05.504Z,49.10
2023-05-22T17:14:34.300Z,50.20
2023-05-22T17:17:01.311Z,50.50
2023-05-22T17:19:28.237Z,51.00
2023-05-22T17:21:56.706Z,51.60
2023-05-22T17:24:23.698Z,52.20
2023-05-22T17:26:50.785Z,52.80
2023-05-22T17:29:17.665Z,53.20
2023-05-22T17:31:44.648Z,54.30
2023-05-22T17:34:11.611Z,55.10
2023-05-22T17:36:38.524Z,56.30
2023-05-22T17:39:05.398Z,56.50
2023-05-22T17:41:32.328Z,57.50
2023-05-22T17:44:01.439Z,58.20
2023-05-22T17:46:28.389Z,58.80
2023-05-22T17:48:55.504Z,59.50
2023-05-22T17:51:22.680Z,60.50
2023-05-22T17:53:56.260Z,60.90
2023-05-22T17:56:23.593Z,61.00
2023-05-22T17:58:50.873Z,62.20
2023-05-22T18:01:18.221Z,62.50
2023-05-22T18:03:46.037Z,62.90
2023-05-22T18:06:13.308Z,63.40
2023-05-22T18:08:40.230Z,63.40
2023-05-22T18:11:07.137Z,64.20
2023-05-22T18:13:34.202Z,64.50
2023-05-22T18:16:01.424Z,65.50
2023-05-22T18:18:28.376Z,69.50
2023-05-22T18:20:55.862Z,70.50
2023-05-22T18:23:22.879Z,72.10
2023-05-22T18:25:49.830Z,74.00
2023-05-22T18:28:16.813Z,75.70
2023-05-22T18:30:44.950Z,77.50
2023-05-22T18:33:12.150Z,80.00
2023-05-22T18:35:39.081Z,82.00
2023-05-22T18:38:06.484Z,83.90
2023-05-22T18:40:33.430Z,87.20
2023-05-22T18:43:00.335Z,90.20
2023-05-22T18:45:27.207Z,92.50
2023-05-22T18:47:54.234Z,94.40
2023-05-22T18:50:23.424Z,96.50
2023-05-22T18:52:50.765Z,99.40
2023-05-22T18:55:17.698Z,99.90
2023-05-22T18:57:44.631Z,99.90
2023-05-22T19:00:11.758Z,99.90
2023-05-22T19:02:39.102Z,99.90
2023-05-22T19:05:07.088Z,99.90
2023-05-22T19:07:34.215Z,99.90
2023-05-22T19:10:01.357Z,99.90
2023-05-22T19:12:31.703Z,99.90
2023-05-22T19:15:00.038Z,99.90
2023-05-22T19:17:27.061Z,99.90
2023-05-22T19:19:53.962Z,99.90
2023-05-22T19:22:21.031Z,99.90
2023-05-22T19:24:47.897Z,99.90
2023-05-22T19:27:14.817Z,99.90
2023-05-22T19:29:41.776Z,99.90
2023-05-22T19:32:08.711Z,99.90
2023-05-22T19:34:35.738Z,99.90
2023-05-22T19:37:02.801Z,99.90
2023-05-22T19:39:29.746Z,99.90
2023-05-22T19:41:56.643Z,99.90
2023-05-22T19:44:23.514Z,99.90
2023-05-22T19:46:50.488Z,99.90
2023-05-22T19:49:17.413Z,99.90
2023-05-22T19:51:44.355Z,99.90
2023-05-22T19:54:11.378Z,99.90
2023-05-22T19:56:38.331Z,99.90
2023-05-22T19:59:05.294Z,99.90
2023-05-22T20:01:32.269Z,99.90
2023-05-22T20:04:01.096Z,99.90
2023-05-22T20:06:31.529Z,99.90
2023-05-22T20:08:58.529Z,99.90
2023-05-22T20:11:26.414Z,99.90
2023-05-22T20:13:54.574Z,99.90
2023-05-22T20:16:21.680Z,99.90
2023-05-22T20:18:48.949Z,99.90
2023-05-22T20:21:15.879Z,99.90
2023-05-22T20:23:44.473Z,99.90
2023-05-22T20:26:11.443Z,99.90
2023-05-22T20:28:38.466Z,99.90
2023-05-22T20:31:06.060Z,99.90
2023-05-22T20:33:33.317Z,99.90
2023-05-22T20:36:01.846Z,99.90
2023-05-22T20:38:29.349Z,99.90
2023-05-22T20:40:58.508Z,99.90
2023-05-22T20:43:26.262Z,99.90
2023-05-22T20:45:54.237Z,99.90
2023-05-22T20:48:21.288Z,99.90
2023-05-22T20:50:48.575Z,99.90
2023-05-22T20:53:15.645Z,99.90
2023-05-22T20:55:42.918Z,99.90
2023-05-22T20:58:09.872Z,99.90
2023-05-22T21:00:36.761Z,99.90
2023-05-22T21:03:03.771Z,99.90
2023-05-22T21:05:30.852Z,99.90
2023-05-22T21:07:58.136Z,99.90
2023-05-22T21:10:25.061Z,99.90
2023-05-22T21:12:51.985Z,99.90
2023-05-22T21:15:19.290Z,99.90
2023-05-22T21:17:46.739Z,99.90
2023-05-22T21:20:14.708Z,99.90
2023-05-22T21:22:41.656Z,99.90
2023-05-22T21:25:09.308Z,99.90
2023-05-22T21:27:36.233Z,99.90
2023-05-22T21:30:03.251Z,99.90
2023-05-22T21:32:30.231Z,99.90
2023-05-22T21:34:57.136Z,99.90
2023-05-22T21:37:24.092Z,99.90
2023-05-22T21:39:51.013Z,99.90
2023-05-22T21:42:18.286Z,99.90
2023-05-22T21:44:45.204Z,99.90
2023-05-22T21:47:12.075Z,99.90
2023-05-22T21:49:39.894Z,99.90
2023-05-22T21:52:06.918Z,99.90
2023-05-22T21:54:33.852Z,99.90
2023-05-22T21:57:00.871Z,99.90
2023-05-22T21:59:27.845Z,99.90
2023-05-22T22:01:54.834Z,99.90
2023-05-22T22:04:21.796Z,99.90
2023-05-22T22:06:48.758Z,99.90
2023-05-22T22:09:15.631Z,99.90
2023-05-22T22:11:42.475Z,99.90
2023-05-22T22:14:09.452Z,99.90
2023-05-22T22:16:36.434Z,99.90
2023-05-22T22:19:03.460Z,99.90
2023-05-22T22:21:31.609Z,99.90
2023-05-22T22:23:58.521Z,99.90
2023-05-22T22:26:25.411Z,99.90
2023-05-22T22:28:52.648Z,99.90
2023-05-22T22:31:19.659Z,99.90
2023-05-22T22:33:46.614Z,99.90
2023-05-22T22:36:13.595Z,99.90
2023-05-22T22:38:40.453Z,99.90
2023-05-22T22:41:09.375Z,99.90
2023-05-22T22:43:36.720Z,99.90
2023-05-22T22:46:03.696Z,99.90
2023-05-22T22:48:30.685Z,99.90
2023-05-22T22:50:58.231Z,99.90
2023-05-22T22:53:25.172Z,99.90
2023-05-22T22:55:56.779Z,99.90
2023-05-22T22:58:23.833Z,99.90
2023-05-22T23:00:50.765Z,99.90
2023-05-22T23:03:17.711Z,99.90
2023-05-22T23:05:44.930Z,99.90
2023-05-22T23:08:12.350Z,99.90
2023-05-22T23:10:39.259Z,99.90
2023-05-22T23:13:06.755Z,99.90
2023-05-22T23:15:33.959Z,99.90
2023-05-22T23:18:00.967Z,99.90
2023-05-22T23:20:27.878Z,99.90
2023-05-22T23:22:54.805Z,99.90
2023-05-22T23:25:21.779Z,99.90
2023-05-22T23:27:48.706Z,99.90
2023-05-22T23:30:15.759Z,99.90
2023-05-22T23:32:42.749Z,99.90
2023-05-22T23:35:10.928Z,99.90
2023-05-22T23:37:38.118Z,99.90
2023-05-22T23:40:06.714Z,99.90
2023-05-22T23:42:35.381Z,99.90
2023-05-22T23:45:05.934Z,99.90
2023-05-22T23:47:32.862Z,99.90
2023-05-22T23:50:00.230Z,99.90
2023-05-22T23:52:27.668Z,99.90
2023-05-22T23:54:54.619Z,99.90
2023-05-22T23:57:21.583Z,99.90
2023-05-22T23:59:48.505Z,99.90
